sensor_id;sensor_type;location;lat;lon;timestamp;P1;durP1;ratioP1;P2;durP2;ratioP2
59105;SDS011;44891;50.204;8.132;2022-07-10T00:00:28;6.70;;;5.50;;
59105;SDS011;44891;50.204;8.132;2022-07-10T00:04:32;6.90;;;5.78;;
59105;SDS011;44891;50.204;8.132;2022-07-10T00:08:34;7.57;;;5.10;;
59105;SDS011;44891;50.204;8.132;2022-07-10T00:12:37;5.85;;;4.80;;
59105;SDS011;44891;50.204;8.132;2022-07-10T00:16:39;5.53;;;4.43;;
59105;SDS011;44891;50.204;8.132;2022-07-10T00:20:42;9.27;;;5.10;;
59105;SDS011;44891;50.204;8.132;2022-07-10T00:24:44;7.57;;;4.75;;
59105;SDS011;44891;50.204;8.132;2022-07-10T00:28:47;6.47;;;4.35;;
59105;SDS011;44891;50.204;8.132;2022-07-10T00:32:49;5.07;;;3.85;;
59105;SDS011;44891;50.204;8.132;2022-07-10T00:36:52;7.35;;;5.03;;
59105;SDS011;44891;50.204;8.132;2022-07-10T00:40:54;4.80;;;4.20;;
59105;SDS011;44891;50.204;8.132;2022-07-10T00:44:56;5.70;;;4.75;;
59105;SDS011;44891;50.204;8.132;2022-07-10T00:48:58;5.85;;;4.70;;
59105;SDS011;44891;50.204;8.132;2022-07-10T00:53:02;6.70;;;4.70;;
59105;SDS011;44891;50.204;8.132;2022-07-10T00:57:04;5.88;;;4.88;;
59105;SDS011;44891;50.204;8.132;2022-07-10T01:01:08;5.40;;;4.30;;
59105;SDS011;44891;50.204;8.132;2022-07-10T01:05:10;6.05;;;4.40;;
59105;SDS011;44891;50.204;8.132;2022-07-10T01:09:14;7.75;;;4.55;;
59105;SDS011;44891;50.204;8.132;2022-07-10T01:13:16;8.05;;;4.10;;
59105;SDS011;44891;50.204;8.132;2022-07-10T01:21:29;4.22;;;3.55;;
59105;SDS011;44891;50.204;8.132;2022-07-10T01:25:32;6.38;;;3.92;;
59105;SDS011;44891;50.204;8.132;2022-07-10T01:29:34;6.35;;;3.90;;
59105;SDS011;44891;50.204;8.132;2022-07-10T01:33:37;7.97;;;3.78;;
59105;SDS011;44891;50.204;8.132;2022-07-10T01:37:40;6.63;;;4.20;;
59105;SDS011;44891;50.204;8.132;2022-07-10T01:41:42;8.00;;;4.00;;
59105;SDS011;44891;50.204;8.132;2022-07-10T01:45:44;6.10;;;3.63;;
59105;SDS011;44891;50.204;8.132;2022-07-10T01:49:47;5.15;;;3.55;;
59105;SDS011;44891;50.204;8.132;2022-07-10T01:53:50;5.05;;;3.40;;
59105;SDS011;44891;50.204;8.132;2022-07-10T01:57:52;6.97;;;3.70;;
59105;SDS011;44891;50.204;8.132;2022-07-10T02:01:54;5.00;;;3.40;;
59105;SDS011;44891;50.204;8.132;2022-07-10T02:05:57;5.32;;;3.03;;
59105;SDS011;44891;50.204;8.132;2022-07-10T02:10:00;4.90;;;3.20;;
59105;SDS011;44891;50.204;8.132;2022-07-10T02:14:02;7.55;;;3.40;;
59105;SDS011;44891;50.204;8.132;2022-07-10T02:18:04;6.00;;;3.08;;
59105;SDS011;44891;50.204;8.132;2022-07-10T02:22:07;6.55;;;2.85;;
59105;SDS011;44891;50.204;8.132;2022-07-10T02:26:10;5.53;;;3.70;;
59105;SDS011;44891;50.204;8.132;2022-07-10T02:30:13;9.15;;;3.70;;
59105;SDS011;44891;50.204;8.132;2022-07-10T02:34:15;5.60;;;3.10;;
59105;SDS011;44891;50.204;8.132;2022-07-10T02:38:17;5.28;;;3.15;;
59105;SDS011;44891;50.204;8.132;2022-07-10T02:42:20;6.35;;;3.58;;
59105;SDS011;44891;50.204;8.132;2022-07-10T02:46:23;5.85;;;3.15;;
59105;SDS011;44891;50.204;8.132;2022-07-10T02:50:25;5.13;;;3.55;;
59105;SDS011;44891;50.204;8.132;2022-07-10T02:54:27;8.68;;;3.13;;
59105;SDS011;44891;50.204;8.132;2022-07-10T02:58:31;4.45;;;3.03;;
59105;SDS011;44891;50.204;8.132;2022-07-10T03:02:33;5.75;;;3.30;;
59105;SDS011;44891;50.204;8.132;2022-07-10T03:06:35;7.72;;;3.25;;
59105;SDS011;44891;50.204;8.132;2022-07-10T03:10:37;5.68;;;3.20;;
59105;SDS011;44891;50.204;8.132;2022-07-10T03:14:41;5.45;;;3.47;;
59105;SDS011;44891;50.204;8.132;2022-07-10T03:18:43;9.07;;;3.60;;
59105;SDS011;44891;50.204;8.132;2022-07-10T03:22:46;5.45;;;3.00;;
59105;SDS011;44891;50.204;8.132;2022-07-10T03:26:48;4.55;;;2.90;;
59105;SDS011;44891;50.204;8.132;2022-07-10T03:30:51;5.28;;;2.95;;
59105;SDS011;44891;50.204;8.132;2022-07-10T03:34:55;4.28;;;2.88;;
59105;SDS011;44891;50.204;8.132;2022-07-10T03:38:57;6.80;;;3.13;;
59105;SDS011;44891;50.204;8.132;2022-07-10T03:43:00;6.25;;;3.00;;
59105;SDS011;44891;50.204;8.132;2022-07-10T03:47:03;6.70;;;3.30;;
59105;SDS011;44891;50.204;8.132;2022-07-10T03:51:05;4.70;;;3.13;;
59105;SDS011;44891;50.204;8.132;2022-07-10T03:55:08;10.60;;;2.88;;
59105;SDS011;44891;50.204;8.132;2022-07-10T03:59:10;6.18;;;3.28;;
59105;SDS011;44891;50.204;8.132;2022-07-10T04:03:13;5.35;;;3.10;;
59105;SDS011;44891;50.204;8.132;2022-07-10T04:07:15;5.95;;;2.88;;
59105;SDS011;44891;50.204;8.132;2022-07-10T04:11:17;5.18;;;3.00;;
59105;SDS011;44891;50.204;8.132;2022-07-10T04:15:19;5.95;;;3.20;;
59105;SDS011;44891;50.204;8.132;2022-07-10T04:19:24;5.28;;;3.15;;
59105;SDS011;44891;50.204;8.132;2022-07-10T04:23:26;5.88;;;3.25;;
59105;SDS011;44891;50.204;8.132;2022-07-10T04:27:28;7.22;;;3.05;;
59105;SDS011;44891;50.204;8.132;2022-07-10T04:31:30;8.40;;;3.35;;
59105;SDS011;44891;50.204;8.132;2022-07-10T04:35:33;5.15;;;3.00;;
59105;SDS011;44891;50.204;8.132;2022-07-10T04:39:36;6.10;;;2.80;;
59105;SDS011;44891;50.204;8.132;2022-07-10T04:43:38;4.90;;;2.90;;
59105;SDS011;44891;50.204;8.132;2022-07-10T04:47:40;7.53;;;3.67;;
59105;SDS011;44891;50.204;8.132;2022-07-10T04:51:44;5.15;;;2.70;;
59105;SDS011;44891;50.204;8.132;2022-07-10T04:55:46;6.18;;;2.58;;
59105;SDS011;44891;50.204;8.132;2022-07-10T04:59:48;5.40;;;2.60;;
59105;SDS011;44891;50.204;8.132;2022-07-10T05:03:50;4.07;;;2.70;;
59105;SDS011;44891;50.204;8.132;2022-07-10T05:07:53;6.40;;;2.53;;
59105;SDS011;44891;50.204;8.132;2022-07-10T05:11:55;7.60;;;3.05;;
59105;SDS011;44891;50.204;8.132;2022-07-10T05:15:57;4.93;;;3.10;;
59105;SDS011;44891;50.204;8.132;2022-07-10T05:19:59;6.20;;;3.08;;
59105;SDS011;44891;50.204;8.132;2022-07-10T05:24:03;6.15;;;2.60;;
59105;SDS011;44891;50.204;8.132;2022-07-10T05:28:05;5.90;;;2.78;;
59105;SDS011;44891;50.204;8.132;2022-07-10T05:32:08;4.55;;;2.22;;
59105;SDS011;44891;50.204;8.132;2022-07-10T05:36:10;5.20;;;2.53;;
59105;SDS011;44891;50.204;8.132;2022-07-10T05:40:13;4.60;;;2.10;;
59105;SDS011;44891;50.204;8.132;2022-07-10T05:44:15;6.40;;;2.65;;
59105;SDS011;44891;50.204;8.132;2022-07-10T05:48:20;5.00;;;2.40;;
59105;SDS011;44891;50.204;8.132;2022-07-10T05:52:22;6.90;;;2.00;;
59105;SDS011;44891;50.204;8.132;2022-07-10T05:56:25;4.70;;;2.40;;
59105;SDS011;44891;50.204;8.132;2022-07-10T06:00:27;4.35;;;2.10;;
59105;SDS011;44891;50.204;8.132;2022-07-10T06:04:29;5.10;;;1.98;;
59105;SDS011;44891;50.204;8.132;2022-07-10T06:08:32;4.53;;;2.13;;
59105;SDS011;44891;50.204;8.132;2022-07-10T06:12:35;2.55;;;1.80;;
59105;SDS011;44891;50.204;8.132;2022-07-10T06:16:38;5.32;;;1.90;;
59105;SDS011;44891;50.204;8.132;2022-07-10T06:20:40;4.68;;;2.00;;
59105;SDS011;44891;50.204;8.132;2022-07-10T06:24:42;7.60;;;2.22;;
59105;SDS011;44891;50.204;8.132;2022-07-10T06:28:45;5.78;;;1.95;;
59105;SDS011;44891;50.204;8.132;2022-07-10T06:32:47;4.32;;;1.80;;
59105;SDS011;44891;50.204;8.132;2022-07-10T06:36:50;3.75;;;1.80;;
59105;SDS011;44891;50.204;8.132;2022-07-10T06:40:53;5.07;;;1.88;;
59105;SDS011;44891;50.204;8.132;2022-07-10T06:44:56;5.18;;;1.83;;
59105;SDS011;44891;50.204;8.132;2022-07-10T06:48:58;3.17;;;2.10;;
59105;SDS011;44891;50.204;8.132;2022-07-10T06:53:01;3.25;;;1.70;;
59105;SDS011;44891;50.204;8.132;2022-07-10T06:57:04;4.93;;;1.75;;
59105;SDS011;44891;50.204;8.132;2022-07-10T07:01:08;4.28;;;1.80;;
59105;SDS011;44891;50.204;8.132;2022-07-10T07:05:10;5.53;;;1.60;;
59105;SDS011;44891;50.204;8.132;2022-07-10T07:09:12;17.95;;;10.05;;
59105;SDS011;44891;50.204;8.132;2022-07-10T07:13:14;6.47;;;2.60;;
59105;SDS011;44891;50.204;8.132;2022-07-10T07:17:18;5.20;;;2.10;;
59105;SDS011;44891;50.204;8.132;2022-07-10T07:21:24;2.78;;;1.58;;
59105;SDS011;44891;50.204;8.132;2022-07-10T07:25:44;4.90;;;1.90;;
59105;SDS011;44891;50.204;8.132;2022-07-10T07:29:47;4.03;;;1.60;;
59105;SDS011;44891;50.204;8.132;2022-07-10T07:33:51;5.95;;;1.75;;
59105;SDS011;44891;50.204;8.132;2022-07-10T07:37:53;3.88;;;1.80;;
59105;SDS011;44891;50.204;8.132;2022-07-10T07:41:55;5.78;;;2.15;;
59105;SDS011;44891;50.204;8.132;2022-07-10T07:45:57;4.07;;;1.90;;
59105;SDS011;44891;50.204;8.132;2022-07-10T07:50:02;7.10;;;1.90;;
59105;SDS011;44891;50.204;8.132;2022-07-10T07:54:04;5.53;;;1.80;;
59105;SDS011;44891;50.204;8.132;2022-07-10T07:58:06;3.67;;;2.00;;
59105;SDS011;44891;50.204;8.132;2022-07-10T08:02:09;4.28;;;1.80;;
59105;SDS011;44891;50.204;8.132;2022-07-10T08:06:12;5.20;;;2.13;;
59105;SDS011;44891;50.204;8.132;2022-07-10T08:10:15;3.58;;;1.95;;
59105;SDS011;44891;50.204;8.132;2022-07-10T08:14:18;7.78;;;2.42;;
59105;SDS011;44891;50.204;8.132;2022-07-10T08:18:20;6.03;;;1.88;;
59105;SDS011;44891;50.204;8.132;2022-07-10T08:22:23;5.15;;;2.45;;
59105;SDS011;44891;50.204;8.132;2022-07-10T08:26:26;7.22;;;2.45;;
59105;SDS011;44891;50.204;8.132;2022-07-10T08:30:28;7.35;;;2.63;;
59105;SDS011;44891;50.204;8.132;2022-07-10T08:34:30;4.45;;;2.35;;
59105;SDS011;44891;50.204;8.132;2022-07-10T08:38:35;4.28;;;2.00;;
59105;SDS011;44891;50.204;8.132;2022-07-10T08:42:37;6.38;;;2.30;;
59105;SDS011;44891;50.204;8.132;2022-07-10T08:46:39;4.60;;;2.00;;
59105;SDS011;44891;50.204;8.132;2022-07-10T08:50:42;3.00;;;1.90;;
59105;SDS011;44891;50.204;8.132;2022-07-10T08:54:49;6.65;;;1.90;;
59105;SDS011;44891;50.204;8.132;2022-07-10T08:58:52;4.10;;;1.80;;
59105;SDS011;44891;50.204;8.132;2022-07-10T09:02:55;3.58;;;1.83;;
59105;SDS011;44891;50.204;8.132;2022-07-10T09:06:58;6.50;;;2.47;;
59105;SDS011;44891;50.204;8.132;2022-07-10T09:11:17;3.72;;;1.77;;
59105;SDS011;44891;50.204;8.132;2022-07-10T09:15:21;4.75;;;1.88;;
59105;SDS011;44891;50.204;8.132;2022-07-10T09:19:25;3.60;;;2.20;;
59105;SDS011;44891;50.204;8.132;2022-07-10T09:23:28;7.53;;;2.50;;
59105;SDS011;44891;50.204;8.132;2022-07-10T09:27:31;22.17;;;13.57;;
59105;SDS011;44891;50.204;8.132;2022-07-10T09:31:47;5.07;;;2.25;;
59105;SDS011;44891;50.204;8.132;2022-07-10T09:35:59;4.05;;;2.03;;
59105;SDS011;44891;50.204;8.132;2022-07-10T09:40:12;5.80;;;2.25;;
59105;SDS011;44891;50.204;8.132;2022-07-10T09:44:18;4.05;;;1.95;;
59105;SDS011;44891;50.204;8.132;2022-07-10T09:48:22;4.88;;;2.35;;
59105;SDS011;44891;50.204;8.132;2022-07-10T09:52:27;5.35;;;2.30;;
59105;SDS011;44891;50.204;8.132;2022-07-10T09:56:34;5.50;;;2.10;;
59105;SDS011;44891;50.204;8.132;2022-07-10T10:00:43;7.20;;;2.37;;
59105;SDS011;44891;50.204;8.132;2022-07-10T10:04:46;3.25;;;2.20;;
59105;SDS011;44891;50.204;8.132;2022-07-10T10:08:51;6.63;;;2.30;;
59105;SDS011;44891;50.204;8.132;2022-07-10T10:12:58;4.53;;;2.25;;
59105;SDS011;44891;50.204;8.132;2022-07-10T10:17:04;4.25;;;2.10;;
59105;SDS011;44891;50.204;8.132;2022-07-10T10:21:07;4.65;;;2.22;;
59105;SDS011;44891;50.204;8.132;2022-07-10T10:25:10;3.78;;;2.10;;
59105;SDS011;44891;50.204;8.132;2022-07-10T10:29:15;5.60;;;2.10;;
59105;SDS011;44891;50.204;8.132;2022-07-10T10:37:44;2.97;;;1.90;;
59105;SDS011;44891;50.204;8.132;2022-07-10T10:41:53;3.47;;;2.10;;
59105;SDS011;44891;50.204;8.132;2022-07-10T10:45:56;3.60;;;1.90;;
59105;SDS011;44891;50.204;8.132;2022-07-10T10:49:59;5.85;;;1.80;;
59105;SDS011;44891;50.204;8.132;2022-07-10T10:54:04;3.38;;;1.58;;
59105;SDS011;44891;50.204;8.132;2022-07-10T10:58:11;4.00;;;1.45;;
59105;SDS011;44891;50.204;8.132;2022-07-10T11:02:20;3.85;;;1.90;;
59105;SDS011;44891;50.204;8.132;2022-07-10T11:10:43;4.43;;;1.67;;
59105;SDS011;44891;50.204;8.132;2022-07-10T11:14:46;4.03;;;1.80;;
59105;SDS011;44891;50.204;8.132;2022-07-10T11:18:51;5.15;;;2.03;;
59105;SDS011;44891;50.204;8.132;2022-07-10T11:22:59;2.63;;;1.80;;
59105;SDS011;44891;50.204;8.132;2022-07-10T11:27:26;5.22;;;2.28;;
59105;SDS011;44891;50.204;8.132;2022-07-10T11:31:35;2.40;;;1.55;;
59105;SDS011;44891;50.204;8.132;2022-07-10T11:35:45;3.13;;;1.70;;
59105;SDS011;44891;50.204;8.132;2022-07-10T11:39:50;2.83;;;1.60;;
59105;SDS011;44891;50.204;8.132;2022-07-10T11:43:52;3.85;;;1.52;;
59105;SDS011;44891;50.204;8.132;2022-07-10T11:47:56;2.70;;;1.20;;
59105;SDS011;44891;50.204;8.132;2022-07-10T11:52:00;1.98;;;1.45;;
59105;SDS011;44891;50.204;8.132;2022-07-10T11:56:05;3.58;;;1.20;;
59105;SDS011;44891;50.204;8.132;2022-07-10T12:00:08;3.17;;;1.42;;
59105;SDS011;44891;50.204;8.132;2022-07-10T12:04:24;4.40;;;1.52;;
59105;SDS011;44891;50.204;8.132;2022-07-10T12:08:27;4.00;;;1.38;;
59105;SDS011;44891;50.204;8.132;2022-07-10T12:12:30;3.75;;;1.50;;
59105;SDS011;44891;50.204;8.132;2022-07-10T12:16:34;3.30;;;1.55;;
59105;SDS011;44891;50.204;8.132;2022-07-10T12:20:37;5.68;;;1.60;;
59105;SDS011;44891;50.204;8.132;2022-07-10T12:24:43;4.07;;;1.73;;
59105;SDS011;44891;50.204;8.132;2022-07-10T12:28:53;2.38;;;1.60;;
59105;SDS011;44891;50.204;8.132;2022-07-10T12:33:04;4.13;;;1.50;;
59105;SDS011;44891;50.204;8.132;2022-07-10T12:37:08;4.50;;;1.70;;
59105;SDS011;44891;50.204;8.132;2022-07-10T12:41:12;3.85;;;1.58;;
59105;SDS011;44891;50.204;8.132;2022-07-10T12:45:18;3.75;;;1.70;;
59105;SDS011;44891;50.204;8.132;2022-07-10T12:49:20;3.00;;;1.80;;
59105;SDS011;44891;50.204;8.132;2022-07-10T12:53:23;4.07;;;1.77;;
59105;SDS011;44891;50.204;8.132;2022-07-10T12:57:25;1.85;;;1.55;;
59105;SDS011;44891;50.204;8.132;2022-07-10T13:01:28;3.63;;;1.58;;
59105;SDS011;44891;50.204;8.132;2022-07-10T13:05:32;2.75;;;1.52;;
59105;SDS011;44891;50.204;8.132;2022-07-10T13:09:35;2.80;;;1.75;;
59105;SDS011;44891;50.204;8.132;2022-07-10T13:13:41;3.55;;;1.90;;
59105;SDS011;44891;50.204;8.132;2022-07-10T13:17:44;2.10;;;1.90;;
59105;SDS011;44891;50.204;8.132;2022-07-10T13:21:47;4.10;;;2.80;;
59105;SDS011;44891;50.204;8.132;2022-07-10T13:25:49;3.05;;;1.92;;
59105;SDS011;44891;50.204;8.132;2022-07-10T13:29:51;3.17;;;2.20;;
59105;SDS011;44891;50.204;8.132;2022-07-10T13:33:54;1.60;;;1.50;;
59105;SDS011;44891;50.204;8.132;2022-07-10T13:37:57;3.05;;;1.70;;
59105;SDS011;44891;50.204;8.132;2022-07-10T13:42:00;2.28;;;1.75;;
59105;SDS011;44891;50.204;8.132;2022-07-10T13:46:02;3.10;;;2.00;;
59105;SDS011;44891;50.204;8.132;2022-07-10T13:50:07;3.17;;;2.20;;
59105;SDS011;44891;50.204;8.132;2022-07-10T13:54:09;1.63;;;1.50;;
59105;SDS011;44891;50.204;8.132;2022-07-10T13:58:11;3.22;;;1.73;;
59105;SDS011;44891;50.204;8.132;2022-07-10T14:02:14;1.85;;;1.67;;
59105;SDS011;44891;50.204;8.132;2022-07-10T14:06:18;2.55;;;1.75;;
59105;SDS011;44891;50.204;8.132;2022-07-10T14:10:21;2.40;;;1.83;;
59105;SDS011;44891;50.204;8.132;2022-07-10T14:14:23;2.17;;;1.60;;
59105;SDS011;44891;50.204;8.132;2022-07-10T14:18:25;2.00;;;1.80;;
59105;SDS011;44891;50.204;8.132;2022-07-10T14:22:39;1.98;;;1.70;;
59105;SDS011;44891;50.204;8.132;2022-07-10T14:26:42;1.60;;;1.50;;
59105;SDS011;44891;50.204;8.132;2022-07-10T14:30:44;1.85;;;1.75;;
59105;SDS011;44891;50.204;8.132;2022-07-10T14:34:46;2.55;;;2.00;;
59105;SDS011;44891;50.204;8.132;2022-07-10T14:38:49;2.97;;;2.00;;
59105;SDS011;44891;50.204;8.132;2022-07-10T14:42:51;2.45;;;2.25;;
59105;SDS011;44891;50.204;8.132;2022-07-10T14:46:57;3.85;;;2.40;;
59105;SDS011;44891;50.204;8.132;2022-07-10T14:50:59;2.90;;;2.60;;
59105;SDS011;44891;50.204;8.132;2022-07-10T14:55:03;3.05;;;2.30;;
59105;SDS011;44891;50.204;8.132;2022-07-10T14:59:07;2.78;;;2.55;;
59105;SDS011;44891;50.204;8.132;2022-07-10T15:03:09;3.75;;;3.00;;
59105;SDS011;44891;50.204;8.132;2022-07-10T15:07:11;3.45;;;3.08;;
59105;SDS011;44891;50.204;8.132;2022-07-10T15:11:17;4.20;;;3.30;;
59105;SDS011;44891;50.204;8.132;2022-07-10T15:15:19;3.83;;;3.20;;
59105;SDS011;44891;50.204;8.132;2022-07-10T15:19:21;3.92;;;3.50;;
59105;SDS011;44891;50.204;8.132;2022-07-10T15:23:23;4.00;;;3.58;;
59105;SDS011;44891;50.204;8.132;2022-07-10T15:27:27;3.92;;;3.58;;
59105;SDS011;44891;50.204;8.132;2022-07-10T15:31:29;4.18;;;3.65;;
59105;SDS011;44891;50.204;8.132;2022-07-10T15:35:32;6.68;;;5.70;;
59105;SDS011;44891;50.204;8.132;2022-07-10T15:39:34;4.80;;;4.18;;
59105;SDS011;44891;50.204;8.132;2022-07-10T15:43:44;4.43;;;4.00;;
59105;SDS011;44891;50.204;8.132;2022-07-10T15:47:46;4.78;;;4.07;;
59105;SDS011;44891;50.204;8.132;2022-07-10T15:51:48;4.47;;;4.07;;
59105;SDS011;44891;50.204;8.132;2022-07-10T15:55:50;4.45;;;3.85;;
59105;SDS011;44891;50.204;8.132;2022-07-10T15:59:54;5.00;;;4.30;;
59105;SDS011;44891;50.204;8.132;2022-07-10T16:03:56;6.13;;;5.13;;
59105;SDS011;44891;50.204;8.132;2022-07-10T16:07:59;5.85;;;5.25;;
59105;SDS011;44891;50.204;8.132;2022-07-10T16:12:01;5.82;;;5.30;;
59105;SDS011;44891;50.204;8.132;2022-07-10T16:16:05;5.78;;;5.10;;
59105;SDS011;44891;50.204;8.132;2022-07-10T16:20:08;6.22;;;4.88;;
59105;SDS011;44891;50.204;8.132;2022-07-10T16:24:12;5.10;;;4.63;;
59105;SDS011;44891;50.204;8.132;2022-07-10T16:28:15;4.60;;;4.20;;
59105;SDS011;44891;50.204;8.132;2022-07-10T16:32:20;5.03;;;4.47;;
59105;SDS011;44891;50.204;8.132;2022-07-10T16:36:22;4.97;;;4.57;;
59105;SDS011;44891;50.204;8.132;2022-07-10T16:40:24;6.15;;;5.20;;
59105;SDS011;44891;50.204;8.132;2022-07-10T16:44:26;5.35;;;4.90;;
59105;SDS011;44891;50.204;8.132;2022-07-10T16:48:30;4.82;;;4.32;;
59105;SDS011;44891;50.204;8.132;2022-07-10T16:52:32;5.22;;;4.63;;
59105;SDS011;44891;50.204;8.132;2022-07-10T16:56:38;5.30;;;4.80;;
59105;SDS011;44891;50.204;8.132;2022-07-10T17:00:41;4.97;;;4.28;;
59105;SDS011;44891;50.204;8.132;2022-07-10T17:04:44;4.95;;;4.45;;
59105;SDS011;44891;50.204;8.132;2022-07-10T17:08:46;4.20;;;3.80;;
59105;SDS011;44891;50.204;8.132;2022-07-10T17:12:49;4.85;;;3.88;;
59105;SDS011;44891;50.204;8.132;2022-07-10T17:16:51;3.90;;;3.60;;
59105;SDS011;44891;50.204;8.132;2022-07-10T17:20:54;3.50;;;3.20;;
59105;SDS011;44891;50.204;8.132;2022-07-10T17:24:56;5.10;;;3.70;;
59105;SDS011;44891;50.204;8.132;2022-07-10T17:28:59;5.18;;;4.00;;
59105;SDS011;44891;50.204;8.132;2022-07-10T17:33:01;3.80;;;3.50;;
59105;SDS011;44891;50.204;8.132;2022-07-10T17:37:05;3.85;;;3.55;;
59105;SDS011;44891;50.204;8.132;2022-07-10T17:41:07;6.20;;;4.80;;
59105;SDS011;44891;50.204;8.132;2022-07-10T17:45:09;5.25;;;4.70;;
59105;SDS011;44891;50.204;8.132;2022-07-10T17:49:12;4.50;;;4.10;;
59105;SDS011;44891;50.204;8.132;2022-07-10T17:53:15;5.20;;;4.63;;
59105;SDS011;44891;50.204;8.132;2022-07-10T17:57:17;6.05;;;4.47;;
59105;SDS011;44891;50.204;8.132;2022-07-10T18:01:19;6.47;;;4.40;;
59105;SDS011;44891;50.204;8.132;2022-07-10T18:05:22;5.50;;;5.00;;
59105;SDS011;44891;50.204;8.132;2022-07-10T18:09:25;4.97;;;4.47;;
59105;SDS011;44891;50.204;8.132;2022-07-10T18:13:29;7.63;;;5.20;;
59105;SDS011;44891;50.204;8.132;2022-07-10T18:17:31;5.80;;;5.20;;
59105;SDS011;44891;50.204;8.132;2022-07-10T18:21:33;6.32;;;5.15;;
59105;SDS011;44891;50.204;8.132;2022-07-10T18:25:37;6.30;;;5.20;;
59105;SDS011;44891;50.204;8.132;2022-07-10T18:29:39;5.00;;;4.55;;
59105;SDS011;44891;50.204;8.132;2022-07-10T18:33:41;5.03;;;4.50;;
59105;SDS011;44891;50.204;8.132;2022-07-10T18:38:00;6.03;;;5.40;;
59105;SDS011;44891;50.204;8.132;2022-07-10T18:42:04;5.57;;;5.07;;
59105;SDS011;44891;50.204;8.132;2022-07-10T18:46:06;6.18;;;4.75;;
59105;SDS011;44891;50.204;8.132;2022-07-10T18:50:09;5.82;;;5.22;;
59105;SDS011;44891;50.204;8.132;2022-07-10T18:54:11;6.13;;;5.63;;
59105;SDS011;44891;50.204;8.132;2022-07-10T18:58:14;6.38;;;5.30;;
59105;SDS011;44891;50.204;8.132;2022-07-10T19:02:17;6.38;;;5.32;;
59105;SDS011;44891;50.204;8.132;2022-07-10T19:06:19;5.38;;;4.85;;
59105;SDS011;44891;50.204;8.132;2022-07-10T19:10:21;6.38;;;5.40;;
59105;SDS011;44891;50.204;8.132;2022-07-10T19:14:24;6.40;;;5.80;;
59105;SDS011;44891;50.204;8.132;2022-07-10T19:18:27;7.82;;;5.93;;
59105;SDS011;44891;50.204;8.132;2022-07-10T19:22:29;6.72;;;6.13;;
59105;SDS011;44891;50.204;8.132;2022-07-10T19:26:31;6.22;;;5.43;;
59105;SDS011;44891;50.204;8.132;2022-07-10T19:30:35;5.43;;;4.93;;
59105;SDS011;44891;50.204;8.132;2022-07-10T19:34:37;5.47;;;4.97;;
59105;SDS011;44891;50.204;8.132;2022-07-10T19:38:39;5.53;;;5.03;;
59105;SDS011;44891;50.204;8.132;2022-07-10T19:42:42;5.63;;;5.05;;
59105;SDS011;44891;50.204;8.132;2022-07-10T19:46:46;5.60;;;5.00;;
59105;SDS011;44891;50.204;8.132;2022-07-10T19:50:48;5.95;;;5.30;;
59105;SDS011;44891;50.204;8.132;2022-07-10T19:54:50;5.88;;;5.32;;
59105;SDS011;44891;50.204;8.132;2022-07-10T19:58:52;7.53;;;5.65;;
59105;SDS011;44891;50.204;8.132;2022-07-10T20:02:55;5.80;;;5.30;;
59105;SDS011;44891;50.204;8.132;2022-07-10T20:06:58;5.85;;;5.35;;
59105;SDS011;44891;50.204;8.132;2022-07-10T20:11:00;6.20;;;5.60;;
59105;SDS011;44891;50.204;8.132;2022-07-10T20:15:02;6.97;;;5.32;;
59105;SDS011;44891;50.204;8.132;2022-07-10T20:19:06;5.68;;;5.18;;
59105;SDS011;44891;50.204;8.132;2022-07-10T20:23:08;6.63;;;5.57;;
59105;SDS011;44891;50.204;8.132;2022-07-10T20:27:11;6.47;;;5.78;;
59105;SDS011;44891;50.204;8.132;2022-07-10T20:31:13;6.22;;;5.63;;
59105;SDS011;44891;50.204;8.132;2022-07-10T20:35:16;6.55;;;5.80;;
59105;SDS011;44891;50.204;8.132;2022-07-10T20:39:18;6.28;;;5.68;;
59105;SDS011;44891;50.204;8.132;2022-07-10T20:43:19;6.32;;;5.57;;
59105;SDS011;44891;50.204;8.132;2022-07-10T20:47:21;6.35;;;5.75;;
59105;SDS011;44891;50.204;8.132;2022-07-10T20:51:25;6.65;;;5.55;;
59105;SDS011;44891;50.204;8.132;2022-07-10T20:55:27;7.05;;;5.22;;
59105;SDS011;44891;50.204;8.132;2022-07-10T20:59:29;6.20;;;5.60;;
59105;SDS011;44891;50.204;8.132;2022-07-10T21:03:31;6.07;;;5.57;;
59105;SDS011;44891;50.204;8.132;2022-07-10T21:07:35;6.43;;;5.50;;
59105;SDS011;44891;50.204;8.132;2022-07-10T21:11:37;6.43;;;5.72;;
59105;SDS011;44891;50.204;8.132;2022-07-10T21:15:39;6.15;;;5.55;;
59105;SDS011;44891;50.204;8.132;2022-07-10T21:19:42;6.15;;;5.40;;
59105;SDS011;44891;50.204;8.132;2022-07-10T21:23:45;6.45;;;5.80;;
59105;SDS011;44891;50.204;8.132;2022-07-10T21:27:47;6.10;;;5.60;;
59105;SDS011;44891;50.204;8.132;2022-07-10T21:31:50;6.18;;;5.68;;
59105;SDS011;44891;50.204;8.132;2022-07-10T21:35:52;6.30;;;5.70;;
59105;SDS011;44891;50.204;8.132;2022-07-10T21:39:56;7.68;;;5.38;;
59105;SDS011;44891;50.204;8.132;2022-07-10T21:43:58;6.82;;;6.13;;
59105;SDS011;44891;50.204;8.132;2022-07-10T21:48:00;6.40;;;5.80;;
59105;SDS011;44891;50.204;8.132;2022-07-10T21:52:02;6.13;;;5.53;;
59105;SDS011;44891;50.204;8.132;2022-07-10T21:56:08;5.93;;;5.35;;
59105;SDS011;44891;50.204;8.132;2022-07-10T22:00:10;6.88;;;6.15;;
59105;SDS011;44891;50.204;8.132;2022-07-10T22:04:13;6.05;;;5.45;;
59105;SDS011;44891;50.204;8.132;2022-07-10T22:08:15;6.20;;;5.70;;
59105;SDS011;44891;50.204;8.132;2022-07-10T22:12:19;9.45;;;5.93;;
59105;SDS011;44891;50.204;8.132;2022-07-10T22:16:21;8.10;;;5.80;;
59105;SDS011;44891;50.204;8.132;2022-07-10T22:20:24;6.15;;;5.55;;
59105;SDS011;44891;50.204;8.132;2022-07-10T22:24:26;8.05;;;5.72;;
59105;SDS011;44891;50.204;8.132;2022-07-10T22:28:29;6.63;;;6.03;;
59105;SDS011;44891;50.204;8.132;2022-07-10T22:32:31;8.38;;;6.15;;
59105;SDS011;44891;50.204;8.132;2022-07-10T22:36:34;6.53;;;5.72;;
59105;SDS011;44891;50.204;8.132;2022-07-10T22:40:36;6.68;;;5.85;;
59105;SDS011;44891;50.204;8.132;2022-07-10T22:44:39;6.80;;;5.90;;
59105;SDS011;44891;50.204;8.132;2022-07-10T22:48:41;7.00;;;5.43;;
59105;SDS011;44891;50.204;8.132;2022-07-10T22:52:43;7.85;;;5.72;;
59105;SDS011;44891;50.204;8.132;2022-07-10T22:56:45;6.68;;;5.97;;
59105;SDS011;44891;50.204;8.132;2022-07-10T23:00:49;5.93;;;5.43;;
59105;SDS011;44891;50.204;8.132;2022-07-10T23:04:52;6.25;;;5.65;;
59105;SDS011;44891;50.204;8.132;2022-07-10T23:08:54;6.60;;;6.00;;
59105;SDS011;44891;50.204;8.132;2022-07-10T23:12:56;6.45;;;5.88;;
59105;SDS011;44891;50.204;8.132;2022-07-10T23:16:59;6.35;;;5.75;;
59105;SDS011;44891;50.204;8.132;2022-07-10T23:21:01;6.40;;;5.70;;
59105;SDS011;44891;50.204;8.132;2022-07-10T23:25:05;8.60;;;5.82;;
59105;SDS011;44891;50.204;8.132;2022-07-10T23:29:08;6.30;;;5.70;;
59105;SDS011;44891;50.204;8.132;2022-07-10T23:33:11;6.53;;;5.85;;
59105;SDS011;44891;50.204;8.132;2022-07-10T23:37:13;6.63;;;5.85;;
59105;SDS011;44891;50.204;8.132;2022-07-10T23:41:16;8.18;;;6.30;;
59105;SDS011;44891;50.204;8.132;2022-07-10T23:45:18;8.63;;;6.47;;
59105;SDS011;44891;50.204;8.132;2022-07-10T23:49:21;7.45;;;6.47;;
59105;SDS011;44891;50.204;8.132;2022-07-10T23:53:41;7.00;;;6.28;;
59105;SDS011;44891;50.204;8.132;2022-07-10T23:57:43;7.25;;;6.20;;
